createdAt,value
2017-12-03T12:37:17.827Z,704
2017-12-03T12:38:25.999Z,784
2017-12-03T12:39:35.844Z,744
2017-12-03T12:40:46.591Z,688
2017-12-03T12:41:55.915Z,708
2017-12-03T12:43:05.785Z,728
2017-12-03T12:44:16.392Z,780
2017-12-03T12:45:26.863Z,784
2017-12-03T12:46:40.445Z,736
2017-12-03T12:47:50.561Z,760
2017-12-03T12:49:03.583Z,644
2017-12-03T12:50:12.470Z,760
2017-12-03T12:51:22.866Z,684
2017-12-03T12:52:31.585Z,672
2017-12-03T12:53:46.589Z,676
2017-12-03T12:54:56.308Z,680
2017-12-03T12:56:07.187Z,556
2017-12-03T12:57:19.240Z,584
2017-12-03T12:58:29.120Z,684
2017-12-03T12:59:38.342Z,592
2017-12-03T13:00:48.952Z,548
2017-12-03T13:01:59.404Z,560
2017-12-03T13:03:09.981Z,544
2017-12-03T13:04:21.627Z,480
2017-12-03T13:05:32.280Z,468
2017-12-03T13:06:42.464Z,476
2017-12-03T13:07:54.182Z,388
2017-12-03T13:09:05.619Z,380
2017-12-03T13:10:14.660Z,376
2017-12-03T13:11:25.512Z,448
2017-12-03T13:12:35.130Z,432
2017-12-03T13:14:57.085Z,404
2017-12-03T13:16:07.906Z,420
2017-12-03T13:17:18.988Z,376
2017-12-03T13:18:28.325Z,464
2017-12-03T13:19:42.029Z,424
2017-12-03T13:20:50.140Z,408
2017-12-03T13:21:59.821Z,404
2017-12-03T13:23:07.182Z,436
2017-12-03T13:24:17.468Z,412
2017-12-03T13:25:27.118Z,416
2017-12-03T13:26:36.521Z,428
2017-12-03T13:27:46.655Z,452
2017-12-03T13:28:57.726Z,396
2017-12-03T13:30:07.124Z,400
2017-12-03T13:31:21.387Z,392
2017-12-03T13:32:30.824Z,360
2017-12-03T13:33:40.785Z,348
2017-12-03T13:34:52.608Z,316
2017-12-03T13:36:06.703Z,304
2017-12-03T13:37:17.348Z,320
2017-12-03T13:38:26.805Z,264
2017-12-03T13:39:36.663Z,264
2017-12-03T13:40:45.924Z,240
2017-12-03T13:41:55.588Z,224
2017-12-03T13:43:04.687Z,224
2017-12-03T13:44:15.710Z,220
2017-12-03T13:45:25.630Z,212
2017-12-03T13:46:35.565Z,204
2017-12-03T13:47:45.905Z,204
2017-12-03T13:48:59.912Z,204
2017-12-03T13:50:09.208Z,192
2017-12-03T13:51:18.921Z,188
2017-12-03T13:52:30.382Z,172
2017-12-03T13:53:56.423Z,184
2017-12-03T13:55:17.584Z,172
2017-12-03T13:56:54.693Z,192
2017-12-03T13:58:22.260Z,188
2017-12-03T13:59:32.409Z,192
